Time;durP1;ratioP1;P1;durP2;ratioP2;P2;SDS_P1;SDS_P2;PMS_P1;PMS_P2;Temp;Humidity;BMP_temperature;BMP_pressure;BME280_temperature;BME280_humidity;BME280_pressure;Samples;Min_cycle;Max_cycle;Signal;HPM_P1;HPM_P2
2021/03/25 00:01:34;;;;;;;51.50;24.67;;;11.60;64.10;;;;;;5074213;28;20212;-82
2021/03/25 00:04:01;;;;;;;51.85;24.02;;;11.40;64.00;;;;;;5077535;28;20181;-81
2021/03/25 00:06:28;;;;;;;56.95;25.88;;;11.20;64.40;;;;;;5082713;28;20176;-80
2021/03/25 00:08:54;;;;;;;47.92;23.02;;;11.10;64.80;;;;;;5076350;28;20169;-80
2021/03/25 00:11:20;;;;;;;45.97;25.70;;;11.30;65.00;;;;;;5067159;28;20225;-81
2021/03/25 00:13:47;;;;;;;42.90;25.15;;;11.60;64.80;;;;;;5055749;28;20169;-81
2021/03/25 00:16:12;;;;;;;52.92;26.33;;;11.80;64.20;;;;;;5063442;28;20523;-80
2021/03/25 00:18:38;;;;;;;48.23;26.10;;;11.70;64.70;;;;;;5075656;28;20175;-80
2021/03/25 00:21:06;;;;;;;41.40;23.58;;;11.50;63.80;;;;;;5074710;28;20169;-81
2021/03/25 00:23:32;;;;;;;49.85;27.45;;;11.60;64.20;;;;;;5074027;28;20184;-81
2021/03/25 00:25:58;;;;;;;59.53;27.67;;;11.60;64.10;;;;;;5075211;28;20296;-81
2021/03/25 00:28:24;;;;;;;54.22;26.25;;;11.50;63.80;;;;;;5075132;28;20238;-80
2021/03/25 00:30:50;;;;;;;57.30;27.47;;;11.30;64.10;;;;;;5073099;28;20651;-81
2021/03/25 00:33:18;;;;;;;54.30;27.73;;;11.40;64.30;;;;;;5073536;28;20200;-81
2021/03/25 00:35:45;;;;;;;58.25;26.95;;;11.40;64.40;;;;;;5073435;28;20410;-81
2021/03/25 00:38:12;;;;;;;56.35;28.65;;;11.40;64.70;;;;;;5073707;28;20241;-81
2021/03/25 00:40:39;;;;;;;54.53;27.35;;;11.40;64.60;;;;;;5072907;28;20184;-80
2021/03/25 00:43:07;;;;;;;49.65;26.92;;;11.20;64.80;;;;;;5073041;28;20212;-80
2021/03/25 00:45:42;;;;;;;49.38;25.73;;;11.30;65.30;;;;;;5073382;28;20203;-81
2021/03/25 00:48:08;;;;;;;53.38;25.73;;;11.30;65.20;;;;;;5074250;28;20505;-81
2021/03/25 00:50:42;;;;;;;44.63;23.02;;;11.30;65.40;;;;;;5072547;28;20180;-81
2021/03/25 00:53:10;;;;;;;51.80;25.75;;;11.40;65.40;;;;;;5073291;28;20211;-81
2021/03/25 00:55:36;;;;;;;47.40;24.98;;;11.40;65.40;;;;;;5074389;28;20252;-81
2021/03/25 00:58:02;;;;;;;54.28;25.63;;;11.20;65.60;;;;;;5074507;28;20643;-81
2021/03/25 01:00:36;;;;;;;46.73;24.97;;;11.30;65.70;;;;;;5073689;28;20176;-80
2021/03/25 01:03:03;;;;;;;44.15;24.77;;;11.20;65.70;;;;;;5077714;28;20218;-80
2021/03/25 01:05:30;;;;;;;42.42;24.75;;;11.10;66.10;;;;;;5080765;28;20382;-80
2021/03/25 01:07:56;;;;;;;45.92;24.67;;;11.20;66.20;;;;;;5072889;28;20532;-81
2021/03/25 01:10:31;;;;;;;48.38;26.25;;;11.20;66.20;;;;;;5072892;28;20267;-81
2021/03/25 01:12:58;;;;;;;45.90;24.98;;;11.10;66.30;;;;;;5052745;28;20273;-81
2021/03/25 01:15:25;;;;;;;54.72;26.92;;;11.10;66.50;;;;;;5052859;28;20641;-81
2021/03/25 01:17:53;;;;;;;73.18;27.65;;;11.40;66.50;;;;;;5052738;28;20543;-80
2021/03/25 01:20:41;;;;;;;56.58;25.40;;;11.50;66.10;;;;;;5052693;28;20598;-81
2021/03/25 01:23:07;;;;;;;61.28;24.73;;;11.40;65.90;;;;;;5052898;28;20200;-81
2021/03/25 01:25:35;;;;;;;47.83;24.38;;;11.30;66.00;;;;;;5052444;28;20205;-81
2021/03/25 01:28:04;;;;;;;49.67;24.52;;;11.60;66.10;;;;;;5052655;28;20177;-81
2021/03/25 01:30:31;;;;;;;49.33;23.83;;;11.60;65.60;;;;;;5053408;28;20177;-81
2021/03/25 01:32:58;;;;;;;51.35;25.80;;;11.60;65.50;;;;;;5052497;28;20687;-81
2021/03/25 01:35:24;;;;;;;40.42;22.77;;;11.50;65.70;;;;;;5058432;28;20651;-80
2021/03/25 01:37:51;;;;;;;47.35;26.65;;;11.30;66.20;;;;;;5074248;28;20187;-81
2021/03/25 01:40:30;;;;;;;48.65;23.40;;;11.10;66.60;;;;;;5072438;28;20531;-81
2021/03/25 01:43:06;;;;;;;46.95;23.15;;;11.00;67.10;;;;;;5073524;28;20632;-82
2021/03/25 01:45:59;;;;;;;52.08;23.98;;;10.90;67.70;;;;;;5072249;28;20204;-81
2021/03/25 01:48:36;;;;;;;45.42;23.13;;;10.90;68.00;;;;;;5073926;28;20208;-81
2021/03/25 01:51:05;;;;;;;47.88;21.38;;;10.90;68.10;;;;;;5071810;28;20207;-81
2021/03/25 01:53:52;;;;;;;51.70;22.08;;;10.90;68.00;;;;;;5073715;28;20261;-81
2021/03/25 01:56:30;;;;;;;45.92;22.73;;;10.70;68.30;;;;;;5072075;28;20798;-80
2021/03/25 01:59:20;;;;;;;39.58;21.13;;;10.80;68.40;;;;;;5071836;28;20259;-80
2021/03/25 02:01:55;;;;;;;40.95;21.80;;;10.70;68.50;;;;;;5078742;28;20193;-81
2021/03/25 02:04:27;;;;;;;43.33;22.77;;;10.70;68.50;;;;;;5075845;28;20561;-81
2021/03/25 02:07:32;;;;;;;45.22;22.70;;;11.00;68.40;;;;;;5073576;28;20172;-81
2021/03/25 02:10:06;;;;;;;37.15;22.02;;;10.90;68.40;;;;;;5042279;28;20180;-80
2021/03/25 02:12:37;;;;;;;38.92;21.15;;;11.00;69.00;;;;;;5056237;28;20296;-81
2021/03/25 02:15:38;;;;;;;50.67;23.08;;;10.90;68.20;;;;;;5052984;28;20173;-81
2021/03/25 02:18:10;;;;;;;45.47;21.08;;;10.90;68.30;;;;;;5053133;28;20186;-81
2021/03/25 02:21:00;;;;;;;51.70;22.50;;;10.90;68.40;;;;;;5052294;28;20189;-81
2021/03/25 02:23:37;;;;;;;42.53;23.83;;;10.80;68.50;;;;;;5054369;28;20256;-81
2021/03/25 02:26:25;;;;;;;40.60;21.52;;;10.80;68.80;;;;;;5052404;28;20214;-81
2021/03/25 02:29:15;;;;;;;51.75;23.95;;;10.70;68.90;;;;;;5053588;28;20207;-81
2021/03/25 02:31:47;;;;;;;41.05;21.95;;;10.60;69.10;;;;;;5053112;28;20264;-81
2021/03/25 02:34:22;;;;;;;50.25;23.85;;;10.80;69.30;;;;;;5053533;28;20192;-80
2021/03/25 02:37:11;;;;;;;36.05;20.73;;;10.60;69.30;;;;;;5053077;28;20176;-80
2021/03/25 02:40:01;;;;;;;36.33;21.50;;;10.60;69.60;;;;;;5051852;28;20189;-80
2021/03/25 02:42:32;;;;;;;46.58;22.27;;;10.60;69.70;;;;;;5051091;28;20343;-80
2021/03/25 02:45:05;;;;;;;42.00;22.30;;;10.70;69.60;;;;;;5051659;28;20193;-81
2021/03/25 02:47:33;;;;;;;46.85;21.15;;;10.50;69.80;;;;;;5051443;28;20178;-81
2021/03/25 02:50:07;;;;;;;45.53;21.00;;;10.50;70.00;;;;;;5065820;28;20184;-81
2021/03/25 02:52:44;;;;;;;41.95;21.42;;;10.40;70.20;;;;;;5071030;28;20206;-81
2021/03/25 02:55:13;;;;;;;47.50;24.05;;;10.40;70.50;;;;;;5071574;28;20259;-82
2021/03/25 02:57:58;;;;;;;43.25;21.35;;;10.40;70.60;;;;;;5071444;28;20176;-80
2021/03/25 03:00:30;;;;;;;47.22;21.95;;;10.60;70.70;;;;;;5082422;28;20239;-80
2021/03/25 03:03:02;;;;;;;51.20;23.65;;;10.50;70.60;;;;;;5073248;28;20279;-81
2021/03/25 03:05:28;;;;;;;46.17;22.60;;;10.70;70.50;;;;;;5072823;28;20250;-81
2021/03/25 03:08:21;;;;;;;44.75;21.33;;;10.80;70.20;;;;;;5072584;28;20253;-81
2021/03/25 03:10:58;;;;;;;50.30;23.48;;;10.90;69.90;;;;;;5070062;28;20173;-80
2021/03/25 03:13:27;;;;;;;42.10;20.70;;;11.00;69.20;;;;;;5056016;28;20235;-80
2021/03/25 03:16:00;;;;;;;47.10;23.17;;;10.80;69.30;;;;;;5056293;28;20601;-80
2021/03/25 03:18:43;;;;;;;46.75;23.10;;;10.60;69.80;;;;;;5056349;28;20160;-81
2021/03/25 03:21:35;;;;;;;41.20;22.75;;;10.60;70.20;;;;;;5054492;28;20177;-80
2021/03/25 03:24:01;;;;;;;43.30;20.85;;;10.60;70.30;;;;;;5056274;28;20199;-80
2021/03/25 03:26:32;;;;;;;46.42;23.83;;;10.70;70.50;;;;;;5056291;28;21029;-80
2021/03/25 03:29:04;;;;;;;44.72;22.00;;;10.80;70.20;;;;;;5055033;28;20188;-81
2021/03/25 03:31:43;;;;;;;51.33;24.17;;;10.80;70.20;;;;;;5055807;28;20204;-81
2021/03/25 03:34:24;;;;;;;42.60;24.73;;;10.80;69.90;;;;;;5054900;28;20538;-80
2021/03/25 03:36:53;;;;;;;44.65;23.40;;;10.80;69.90;;;;;;5054644;28;20348;-79
2021/03/25 03:39:23;;;;;;;46.40;22.75;;;10.70;70.20;;;;;;5054667;28;20195;-79
2021/03/25 03:41:58;;;;;;;45.63;22.30;;;10.50;70.30;;;;;;5055220;28;20208;-80
2021/03/25 03:44:35;;;;;;;41.55;24.00;;;10.60;70.60;;;;;;5054258;28;20204;-81
2021/03/25 03:47:03;;;;;;;48.00;22.15;;;10.90;70.70;;;;;;5054446;28;20211;-81
2021/03/25 03:49:37;;;;;;;51.60;22.58;;;11.10;70.10;;;;;;5064154;28;20172;-81
2021/03/25 03:52:11;;;;;;;44.05;21.67;;;11.10;69.80;;;;;;5073902;28;20192;-81
2021/03/25 03:54:38;;;;;;;42.28;22.10;;;11.10;69.40;;;;;;5075659;28;20255;-80
2021/03/25 03:57:12;;;;;;;47.15;24.00;;;10.90;69.40;;;;;;5074072;28;20180;-80
2021/03/25 03:59:55;;;;;;;44.42;20.33;;;11.00;69.80;;;;;;5083664;28;20179;-80
2021/03/25 04:02:26;;;;;;;48.17;23.40;;;11.10;69.90;;;;;;5074223;28;20629;-81
2021/03/25 04:05:22;;;;;;;50.72;22.67;;;11.10;69.60;;;;;;5073990;28;20295;-81
2021/03/25 04:07:55;;;;;;;55.15;23.13;;;11.30;69.50;;;;;;5075357;28;20175;-81
2021/03/25 04:10:40;;;;;;;42.70;25.25;;;11.30;69.20;;;;;;5074116;28;20173;-80
2021/03/25 04:13:11;;;;;;;41.25;21.25;;;10.90;69.30;;;;;;5074279;28;20203;-81
2021/03/25 04:15:38;;;;;;;45.35;21.75;;;10.60;69.80;;;;;;5074111;28;20176;-81
2021/03/25 04:18:31;;;;;;;46.42;23.13;;;10.70;70.50;;;;;;5074078;28;20283;-81
2021/03/25 04:21:03;;;;;;;48.60;24.35;;;10.80;70.40;;;;;;5065486;28;20264;-81
2021/03/25 04:23:30;;;;;;;40.33;21.25;;;10.60;70.20;;;;;;5072580;28;20177;-81
2021/03/25 04:26:16;;;;;;;49.25;25.60;;;10.60;70.70;;;;;;5075201;28;20200;-81
2021/03/25 04:28:54;;;;;;;43.38;22.92;;;10.70;70.80;;;;;;5073669;28;20173;-80
2021/03/25 04:31:20;;;;;;;40.50;20.77;;;10.50;70.70;;;;;;5074503;28;20532;-81
2021/03/25 04:33:46;;;;;;;47.70;22.10;;;10.40;71.10;;;;;;5073666;28;20176;-81
2021/03/25 04:36:23;;;;;;;39.33;21.77;;;10.50;71.10;;;;;;5075235;28;20498;-81
2021/03/25 04:38:49;;;;;;;49.28;22.77;;;10.10;71.40;;;;;;5075497;28;20399;-81
2021/03/25 04:41:16;;;;;;;42.33;22.60;;;10.20;71.90;;;;;;5073136;28;20275;-81
2021/03/25 04:43:44;;;;;;;51.22;23.58;;;10.00;72.20;;;;;;5073734;28;20203;-80
2021/03/25 04:46:28;;;;;;;44.95;23.67;;;9.90;72.50;;;;;;5074517;28;20207;-80
2021/03/25 04:49:03;;;;;;;48.65;23.42;;;9.90;72.80;;;;;;5073546;28;20175;-80
2021/03/25 04:51:29;;;;;;;45.85;23.77;;;9.90;73.00;;;;;;5072841;28;20196;-81
2021/03/25 04:54:23;;;;;;;49.60;23.30;;;9.90;73.20;;;;;;5073113;28;20184;-81
2021/03/25 04:56:49;;;;;;;44.67;22.55;;;9.90;73.20;;;;;;5081530;28;20418;-80
2021/03/25 04:59:17;;;;;;;45.70;22.17;;;9.90;73.30;;;;;;5076746;28;20181;-81
2021/03/25 05:01:43;;;;;;;43.80;23.35;;;10.10;73.30;;;;;;5072991;28;20226;-81
2021/03/25 05:04:12;;;;;;;42.07;22.97;;;10.20;72.90;;;;;;5073623;28;20694;-81
2021/03/25 05:06:38;;;;;;;46.03;24.00;;;10.00;72.70;;;;;;5073314;28;20169;-80
2021/03/25 05:09:04;;;;;;;45.87;21.73;;;10.10;73.10;;;;;;5073687;28;20271;-80
2021/03/25 05:11:29;;;;;;;57.10;25.27;;;10.00;73.10;;;;;;5065194;28;20221;-80
2021/03/25 05:13:58;;;;;;;48.20;21.50;;;10.10;73.20;;;;;;5054007;28;20676;-80
2021/03/25 05:16:23;;;;;;;61.50;24.15;;;10.10;73.10;;;;;;5054336;28;20478;-80
2021/03/25 05:18:56;;;;;;;48.20;23.70;;;10.20;73.10;;;;;;5053017;28;20189;-80
2021/03/25 05:21:37;;;;;;;48.45;23.42;;;10.10;73.00;;;;;;5053749;28;20267;-81
2021/03/25 05:24:30;;;;;;;47.22;22.98;;;10.10;72.90;;;;;;5052948;28;20177;-81
2021/03/25 05:27:07;;;;;;;35.90;21.00;;;10.10;73.00;;;;;;5053001;28;20227;-81
2021/03/25 05:29:35;;;;;;;52.95;23.90;;;10.40;73.00;;;;;;5052985;28;20180;-80
2021/03/25 05:32:02;;;;;;;43.08;21.98;;;10.60;72.40;;;;;;5053803;28;20247;-80
2021/03/25 05:34:28;;;;;;;49.53;23.45;;;10.80;71.90;;;;;;5052275;28;20667;-81
2021/03/25 05:36:57;;;;;;;48.78;22.00;;;10.80;71.30;;;;;;5052681;28;20173;-80
2021/03/25 05:39:24;;;;;;;50.47;23.35;;;10.80;71.20;;;;;;5053902;28;20183;-80
2021/03/25 05:42:05;;;;;;;44.25;22.13;;;10.70;71.40;;;;;;5051880;28;20216;-80
2021/03/25 05:45:12;;;;;;;49.05;20.45;;;10.50;71.60;;;;;;5052455;28;20216;-80
2021/03/25 05:48:19;;;;;;;41.60;21.13;;;10.40;71.90;;;;;;4995328;28;20228;-80
2021/03/25 05:51:01;;;;;;;38.85;20.08;;;10.40;72.00;;;;;;4994571;28;20209;-82
2021/03/25 05:53:37;;;;;;;36.63;21.92;;;10.50;72.40;;;;;;5049119;28;20636;-81
2021/03/25 05:56:19;;;;;;;39.63;20.15;;;10.50;72.10;;;;;;5057963;28;20628;-81
2021/03/25 05:58:55;;;;;;;46.45;22.33;;;10.40;72.00;;;;;;5056922;28;20160;-81
2021/03/25 06:01:27;;;;;;;41.97;20.33;;;10.30;72.40;;;;;;5071492;28;20249;-81
2021/03/25 06:04:04;;;;;;;47.90;20.50;;;10.30;72.60;;;;;;5073245;28;20211;-81
2021/03/25 06:06:41;;;;;;;41.50;20.58;;;10.40;72.70;;;;;;5072318;28;20207;-81
2021/03/25 06:09:19;;;;;;;43.67;22.67;;;10.70;72.60;;;;;;5073663;28;20145;-80
2021/03/25 06:12:06;;;;;;;35.83;20.73;;;10.50;72.10;;;;;;5061437;28;20196;-81
2021/03/25 06:14:57;;;;;;;43.53;19.92;;;10.70;73.00;;;;;;5051807;28;20177;-79
2021/03/25 06:17:51;;;;;;;40.08;20.55;;;10.70;72.00;;;;;;5053321;28;20176;-79
2021/03/25 06:20:26;;;;;;;45.80;19.77;;;10.80;71.80;;;;;;5052316;28;20200;-80
2021/03/25 06:23:04;;;;;;;41.17;20.63;;;11.00;71.50;;;;;;5051962;28;20269;-80
2021/03/25 06:25:49;;;;;;;42.10;21.23;;;11.10;70.70;;;;;;5053027;28;20621;-80
2021/03/25 06:28:39;;;;;;;35.33;20.25;;;11.00;70.70;;;;;;5053219;28;20176;-80
2021/03/25 06:31:38;;;;;;;40.13;21.30;;;10.80;70.50;;;;;;5052638;28;20153;-80
2021/03/25 06:34:15;;;;;;;36.05;20.13;;;10.80;70.90;;;;;;5051806;28;20183;-79
2021/03/25 06:36:46;;;;;;;37.85;19.52;;;10.80;71.10;;;;;;5052865;28;20192;-80
2021/03/25 06:39:35;;;;;;;42.42;21.50;;;10.80;71.10;;;;;;5052852;28;20185;-80
2021/03/25 06:42:16;;;;;;;34.25;19.08;;;10.70;71.30;;;;;;5053282;28;20193;-80
2021/03/25 06:44:46;;;;;;;41.90;21.02;;;10.80;71.20;;;;;;5053501;28;20185;-80
2021/03/25 06:48:05;;;;;;;45.30;21.65;;;10.90;71.20;;;;;;5053464;28;20173;-80
2021/03/25 06:50:39;;;;;;;35.70;19.25;;;11.10;71.00;;;;;;4995857;28;20170;-81
2021/03/25 06:53:28;;;;;;;42.63;19.88;;;11.00;70.60;;;;;;5058005;28;20251;-81
2021/03/25 06:56:10;;;;;;;40.22;20.67;;;11.30;70.50;;;;;;5071000;28;20524;-80
2021/03/25 06:58:53;;;;;;;37.33;20.23;;;11.30;69.50;;;;;;5076177;28;20268;-80
2021/03/25 07:01:40;;;;;;;33.92;19.42;;;11.20;69.50;;;;;;5054939;28;20234;-77
2021/03/25 07:04:13;;;;;;;36.63;20.35;;;11.50;69.60;;;;;;5056352;28;20647;-77
2021/03/25 07:06:40;;;;;;;40.35;19.05;;;11.60;69.10;;;;;;5056551;28;20509;-78
2021/03/25 07:09:06;;;;;;;37.97;20.52;;;11.70;68.80;;;;;;5065353;28;20177;-78
2021/03/25 07:11:32;;;;;;;30.70;18.23;;;11.70;68.80;;;;;;5068866;28;20609;-78
2021/03/25 07:14:18;;;;;;;35.13;19.73;;;11.70;68.80;;;;;;5076188;28;20169;-78
2021/03/25 07:16:46;;;;;;;45.30;20.38;;;11.60;68.70;;;;;;5065222;28;20235;-79
2021/03/25 07:19:15;;;;;;;36.58;19.55;;;11.50;68.80;;;;;;5054855;28;20551;-78
2021/03/25 07:21:44;;;;;;;37.65;20.17;;;11.50;69.00;;;;;;5071786;28;20234;-78
2021/03/25 07:24:34;;;;;;;39.25;20.10;;;11.40;69.10;;;;;;5074052;28;20256;-77
2021/03/25 07:27:24;;;;;;;35.38;19.60;;;11.40;69.30;;;;;;5074058;28;20184;-78
2021/03/25 07:30:03;;;;;;;29.17;16.80;;;11.50;69.70;;;;;;5065706;28;20259;-77
2021/03/25 07:32:39;;;;;;;43.53;19.95;;;11.40;69.80;;;;;;5073750;28;20195;-77
2021/03/25 07:35:23;;;;;;;28.45;17.48;;;11.50;70.00;;;;;;5075831;28;20153;-76
2021/03/25 07:37:49;;;;;;;37.78;16.80;;;11.60;69.90;;;;;;5074248;28;20635;-76
2021/03/25 07:40:29;;;;;;;35.83;18.47;;;11.70;70.00;;;;;;5074466;28;20261;-76
2021/03/25 07:42:57;;;;;;;44.05;20.38;;;11.60;70.20;;;;;;5061122;28;20558;-76
2021/03/25 07:45:25;;;;;;;33.60;17.48;;;11.50;70.70;;;;;;5055271;28;20197;-76
2021/03/25 07:47:53;;;;;;;34.22;17.80;;;11.60;71.40;;;;;;5054428;28;20517;-76
2021/03/25 07:50:34;;;;;;;30.90;17.00;;;11.70;71.60;;;;;;5056995;28;20644;-77
2021/03/25 07:53:22;;;;;;;36.17;19.33;;;11.80;71.30;;;;;;5056367;28;20211;-76
2021/03/25 07:55:48;;;;;;;31.38;18.33;;;11.70;71.40;;;;;;5055367;28;20177;-77
2021/03/25 07:58:34;;;;;;;40.42;17.45;;;11.60;71.80;;;;;;5053688;28;20177;-78
2021/03/25 08:01:09;;;;;;;31.23;16.02;;;11.50;72.20;;;;;;5073916;28;20176;-78
2021/03/25 08:03:50;;;;;;;28.13;15.20;;;11.40;72.60;;;;;;5074048;28;20176;-78
2021/03/25 08:06:28;;;;;;;32.60;16.67;;;11.30;73.00;;;;;;5074589;28;20200;-78
2021/03/25 08:09:14;;;;;;;29.42;15.75;;;11.50;73.20;;;;;;5074625;28;20179;-78
2021/03/25 08:12:02;;;;;;;38.08;17.23;;;11.80;72.90;;;;;;5065342;28;20192;-78
2021/03/25 08:14:37;;;;;;;28.50;16.65;;;11.70;72.40;;;;;;5054474;28;20640;-78
2021/03/25 08:17:12;;;;;;;30.77;16.75;;;11.90;72.70;;;;;;5082767;28;20182;-78
2021/03/25 08:19:52;;;;;;;31.13;18.58;;;11.90;73.20;;;;;;5096247;28;20183;-77
2021/03/25 08:22:18;;;;;;;32.70;17.67;;;11.90;73.70;;;;;;5093661;28;20548;-78
2021/03/25 08:25:18;;;;;;;30.00;15.67;;;12.00;74.80;;;;;;5094188;28;20199;-77
2021/03/25 08:27:58;;;;;;;32.95;17.63;;;12.10;75.40;;;;;;5094431;28;20164;-77
2021/03/25 08:31:01;;;;;;;34.60;16.42;;;12.20;75.20;;;;;;5095735;28;20186;-79
2021/03/25 08:33:36;;;;;;;30.75;16.95;;;11.70;75.40;;;;;;5091998;28;20923;-77
2021/03/25 08:36:38;;;;;;;29.90;17.02;;;11.60;76.10;;;;;;5094350;28;20264;-77
2021/03/25 08:39:31;;;;;;;41.47;16.50;;;12.10;76.20;;;;;;5094765;28;20156;-77
2021/03/25 08:42:17;;;;;;;31.92;17.40;;;12.40;76.00;;;;;;5092702;28;20260;-77
2021/03/25 08:44:50;;;;;;;32.78;18.00;;;12.40;75.00;;;;;;5094944;28;20195;-77
2021/03/25 08:47:37;;;;;;;27.67;16.80;;;12.90;74.20;;;;;;5093464;28;20176;-77
2021/03/25 08:50:11;;;;;;;24.63;16.30;;;13.40;72.60;;;;;;5095326;28;20159;-76
2021/03/25 08:52:39;;;;;;;25.80;15.18;;;13.60;71.50;;;;;;5093580;28;20202;-77
2021/03/25 08:55:25;;;;;;;26.40;15.00;;;13.90;70.20;;;;;;5093493;28;20184;-77
2021/03/25 08:57:58;;;;;;;27.13;16.48;;;13.90;69.00;;;;;;5077183;28;20636;-77
2021/03/25 09:00:28;;;;;;;30.67;16.80;;;13.90;68.50;;;;;;5073754;28;20173;-77
2021/03/25 09:03:02;;;;;;;28.80;16.95;;;13.70;68.50;;;;;;5072503;28;20309;-77
2021/03/25 09:05:38;;;;;;;28.15;14.82;;;13.70;68.10;;;;;;5072066;28;20200;-77
2021/03/25 09:08:15;;;;;;;27.10;16.80;;;13.80;68.00;;;;;;5052496;28;20169;-77
2021/03/25 09:10:46;;;;;;;30.52;16.85;;;13.90;68.50;;;;;;5053915;28;20185;-79
2021/03/25 09:13:22;;;;;;;32.03;17.77;;;13.80;67.80;;;;;;5053642;28;20684;-77
2021/03/25 09:15:50;;;;;;;27.13;15.90;;;13.90;68.40;;;;;;5050837;28;20193;-77
2021/03/25 09:18:23;;;;;;;34.55;19.73;;;13.90;68.10;;;;;;5069474;28;20600;-77
2021/03/25 09:20:55;;;;;;;27.20;16.60;;;13.60;67.90;;;;;;5070143;28;20267;-78
2021/03/25 09:23:33;;;;;;;26.63;17.25;;;13.70;68.50;;;;;;5052027;28;20201;-77
2021/03/25 09:26:23;;;;;;;30.40;19.75;;;13.60;68.20;;;;;;5052071;28;20200;-78
2021/03/25 09:29:02;;;;;;;30.95;17.65;;;13.60;68.90;;;;;;5046342;28;20723;-78
2021/03/25 09:31:30;;;;;;;41.70;19.77;;;13.50;69.10;;;;;;5062457;28;20599;-76
2021/03/25 09:34:09;;;;;;;32.08;18.63;;;13.30;69.20;;;;;;5066853;28;20220;-76
2021/03/25 09:36:37;;;;;;;29.35;17.70;;;13.20;69.50;;;;;;5056446;28;20204;-77
2021/03/25 09:39:03;;;;;;;36.67;18.55;;;13.20;69.70;;;;;;5053549;28;20640;-75
2021/03/25 09:41:29;;;;;;;38.03;19.77;;;12.90;70.10;;;;;;5052679;28;20292;-76
2021/03/25 09:44:02;;;;;;;32.73;18.90;;;12.90;70.60;;;;;;5071874;28;21854;-79
2021/03/25 09:46:59;;;;;;;32.80;20.58;;;12.80;71.20;;;;;;5059128;28;20454;-76
2021/03/25 09:49:49;;;;;;;31.83;18.63;;;12.90;71.30;;;;;;5051733;28;20173;-77
2021/03/25 09:52:37;;;;;;;32.55;18.05;;;12.90;71.10;;;;;;5051397;28;20204;-77
2021/03/25 09:55:03;;;;;;;35.25;20.75;;;13.10;71.00;;;;;;5072811;28;20276;-75
2021/03/25 09:57:29;;;;;;;22.70;15.10;;;12.90;71.10;;;;;;5073156;28;20196;-77
2021/03/25 10:00:01;;;;;;;37.13;17.60;;;13.00;71.10;;;;;;5057201;28;20517;-77
2021/03/25 10:02:47;;;;;;;25.88;15.27;;;12.90;70.70;;;;;;5051251;28;20236;-77
2021/03/25 10:05:25;;;;;;;26.73;14.68;;;13.10;70.70;;;;;;5052941;28;20188;-76
2021/03/25 10:08:09;;;;;;;22.02;13.63;;;13.10;69.90;;;;;;5053065;28;20721;-77
2021/03/25 10:10:41;;;;;;;26.55;14.93;;;13.00;69.70;;;;;;5064329;28;20197;-78
2021/03/25 10:13:16;;;;;;;22.75;14.60;;;13.10;69.40;;;;;;5072029;28;20200;-77
2021/03/25 10:15:54;;;;;;;20.88;14.05;;;13.00;69.10;;;;;;5064105;28;20215;-77
2021/03/25 10:18:26;;;;;;;25.20;14.43;;;13.00;69.00;;;;;;5053238;28;20177;-77
2021/03/25 10:21:14;;;;;;;21.40;12.48;;;13.00;68.90;;;;;;5062440;28;20176;-77
2021/03/25 10:23:49;;;;;;;21.77;12.45;;;13.00;68.40;;;;;;5071671;28;20169;-77
2021/03/25 10:26:47;;;;;;;22.48;12.02;;;13.00;68.20;;;;;;5072861;28;20654;-78
2021/03/25 10:29:24;;;;;;;22.67;12.40;;;13.30;67.80;;;;;;5038805;28;20181;-77
2021/03/25 10:31:55;;;;;;;25.00;13.00;;;13.50;66.70;;;;;;5071271;28;20200;-77
2021/03/25 10:34:33;;;;;;;23.85;12.70;;;13.50;65.70;;;;;;5072714;28;20153;-77
2021/03/25 10:37:25;;;;;;;18.02;11.73;;;13.50;65.10;;;;;;5072349;28;20183;-77
2021/03/25 10:40:01;;;;;;;22.67;11.82;;;13.60;64.80;;;;;;5070963;28;20279;-77
2021/03/25 10:42:32;;;;;;;19.63;11.57;;;13.50;65.00;;;;;;5070914;28;20204;-76
2021/03/25 10:45:21;;;;;;;18.55;12.25;;;13.50;64.50;;;;;;5071081;28;20582;-78
2021/03/25 10:47:58;;;;;;;20.30;11.07;;;13.50;64.40;;;;;;5071510;28;20185;-78
2021/03/25 10:51:02;;;;;;;19.15;10.55;;;13.70;64.00;;;;;;5071025;28;20180;-78
2021/03/25 10:53:37;;;;;;;22.30;11.07;;;13.60;63.80;;;;;;5062028;28;20184;-79
2021/03/25 10:56:21;;;;;;;22.42;11.48;;;13.80;63.10;;;;;;5071380;28;20190;-79
2021/03/25 10:59:04;;;;;;;17.25;10.70;;;13.80;62.90;;;;;;5072507;28;20242;-78
2021/03/25 11:01:33;;;;;;;19.67;11.27;;;13.90;62.90;;;;;;5071568;28;20273;-79
2021/03/25 11:04:00;;;;;;;17.92;11.27;;;14.20;62.30;;;;;;5072129;28;20259;-78
2021/03/25 11:06:35;;;;;;;16.10;10.43;;;14.50;61.20;;;;;;5072160;28;20212;-79
2021/03/25 11:09:14;;;;;;;22.10;9.63;;;14.70;60.60;;;;;;5073013;28;20168;-80
2021/03/25 11:11:39;;;;;;;12.25;9.00;;;14.90;58.90;;;;;;5062732;28;20201;-79
2021/03/25 11:14:33;;;;;;;15.93;8.80;;;14.80;57.80;;;;;;5051868;28;20182;-79
2021/03/25 11:17:14;;;;;;;13.77;8.45;;;15.00;58.10;;;;;;5052285;28;20295;-79
2021/03/25 11:19:41;;;;;;;14.52;9.50;;;15.00;56.40;;;;;;5051965;28;20223;-79
2021/03/25 11:22:12;;;;;;;18.83;8.60;;;14.90;56.40;;;;;;5052927;28;20197;-80
2021/03/25 11:24:42;;;;;;;14.10;9.38;;;14.90;56.30;;;;;;5053468;28;20174;-79
2021/03/25 11:27:21;;;;;;;11.65;8.15;;;15.00;56.40;;;;;;5037949;28;20181;-79
2021/03/25 11:29:48;;;;;;;13.48;8.40;;;15.30;56.30;;;;;;5052104;28;20285;-78
2021/03/25 11:32:23;;;;;;;12.20;8.65;;;15.10;55.90;;;;;;5068757;28;20196;-78
2021/03/25 11:34:54;;;;;;;12.60;8.35;;;15.10;55.80;;;;;;5076199;28;20254;-78
2021/03/25 11:37:22;;;;;;;16.70;8.23;;;15.40;55.90;;;;;;5075204;28;20268;-78
2021/03/25 11:40:18;;;;;;;17.10;9.60;;;15.50;55.60;;;;;;5075235;28;20196;-78
2021/03/25 11:43:01;;;;;;;11.07;8.10;;;15.50;55.40;;;;;;5067026;28;20254;-79
2021/03/25 11:45:41;;;;;;;15.77;10.18;;;15.30;55.40;;;;;;5073126;28;20195;-78
2021/03/25 11:48:24;;;;;;;13.38;8.73;;;15.30;55.60;;;;;;5077744;28;20578;-77
2021/03/25 11:50:50;;;;;;;15.55;9.85;;;15.10;56.20;;;;;;5075488;28;20503;-78
2021/03/25 11:53:33;;;;;;;11.70;8.60;;;15.10;56.50;;;;;;5076452;28;20275;-78
2021/03/25 11:56:00;;;;;;;12.20;9.00;;;14.90;56.70;;;;;;5075964;28;20874;-79
2021/03/25 11:58:26;;;;;;;19.02;9.38;;;14.80;57.20;;;;;;5074176;28;20261;-79
2021/03/25 12:01:20;;;;;;;13.00;8.80;;;14.70;57.60;;;;;;5074215;28;20616;-79
2021/03/25 12:03:47;;;;;;;22.55;9.60;;;14.60;58.30;;;;;;5074602;28;20187;-79
2021/03/25 12:06:30;;;;;;;14.55;9.80;;;14.40;58.40;;;;;;5075536;28;20322;-79
2021/03/25 12:09:13;;;;;;;12.07;9.05;;;14.20;59.10;;;;;;5075641;28;20161;-79
2021/03/25 12:11:43;;;;;;;14.15;9.15;;;14.20;59.30;;;;;;5068978;28;20695;-79
2021/03/25 12:14:09;;;;;;;14.32;10.13;;;14.30;59.80;;;;;;5064072;28;20222;-79
2021/03/25 12:16:36;;;;;;;16.00;9.55;;;14.50;59.50;;;;;;5063544;28;20177;-79
2021/03/25 12:19:04;;;;;;;13.48;8.63;;;14.40;59.20;;;;;;5054354;28;20188;-79
2021/03/25 12:21:30;;;;;;;19.08;10.07;;;14.40;59.40;;;;;;5060223;28;20200;-78
2021/03/25 12:23:59;;;;;;;13.73;8.48;;;14.40;59.20;;;;;;5069768;28;20274;-79
2021/03/25 12:26:25;;;;;;;11.75;8.68;;;14.30;59.20;;;;;;5057347;28;20556;-79
2021/03/25 12:28:52;;;;;;;12.05;8.25;;;14.20;59.20;;;;;;5063037;28;20264;-79
2021/03/25 12:31:20;;;;;;;15.77;8.70;;;14.30;59.20;;;;;;5073383;28;20193;-79
2021/03/25 12:33:47;;;;;;;15.18;7.95;;;14.40;59.20;;;;;;5074691;28;20173;-81
2021/03/25 12:36:14;;;;;;;22.15;9.43;;;14.50;59.00;;;;;;5074552;28;20531;-80
2021/03/25 12:38:40;;;;;;;17.08;8.60;;;14.80;58.70;;;;;;5074453;28;20184;-80
2021/03/25 12:41:07;;;;;;;9.93;6.85;;;14.90;58.20;;;;;;5074138;28;20184;-79
2021/03/25 12:43:34;;;;;;;14.45;8.35;;;15.00;57.60;;;;;;5065161;28;20219;-81
2021/03/25 12:46:10;;;;;;;10.30;7.85;;;15.10;57.30;;;;;;5066506;28;20201;-80
2021/03/25 12:48:36;;;;;;;16.58;8.85;;;15.00;56.40;;;;;;5059567;28;20252;-78
2021/03/25 12:51:05;;;;;;;14.40;8.85;;;15.20;56.30;;;;;;5069682;28;20566;-78
2021/03/25 12:53:32;;;;;;;15.48;7.90;;;15.10;55.60;;;;;;5073307;28;20169;-78
2021/03/25 12:55:59;;;;;;;15.20;7.60;;;15.10;55.60;;;;;;5073778;28;20176;-79
2021/03/25 12:58:34;;;;;;;13.23;6.80;;;15.40;55.50;;;;;;5073202;28;20180;-79
2021/03/25 13:01:05;;;;;;;8.63;5.70;;;15.40;54.40;;;;;;5072964;28;20221;-79
2021/03/25 13:03:32;;;;;;;9.40;5.85;;;15.40;53.50;;;;;;5073251;28;20252;-78
2021/03/25 13:05:57;;;;;;;10.57;4.93;;;15.50;51.80;;;;;;5073102;28;20200;-78
2021/03/25 13:08:23;;;;;;;10.50;5.77;;;15.40;49.70;;;;;;5074039;28;20272;-79
2021/03/25 13:10:49;;;;;;;8.03;5.10;;;15.50;49.20;;;;;;5071615;28;20176;-79